sensor_id;sensor_type;location;lat;lon;timestamp;pressure;altitude;pressure_sealevel;temperature;humidity
32237;BME280;18726;44.732;10.550;2023-05-15T00:01:32;100497.81;;;14.66;100.00
32237;BME280;18726;44.732;10.550;2023-05-15T00:04:36;100489.41;;;14.45;100.00
32237;BME280;18726;44.732;10.550;2023-05-15T00:07:39;100487.69;;;14.30;100.00
32237;BME280;18726;44.732;10.550;2023-05-15T00:10:43;100487.59;;;14.23;100.00
32237;BME280;18726;44.732;10.550;2023-05-15T00:13:47;100486.38;;;14.16;100.00
32237;BME280;18726;44.732;10.550;2023-05-15T00:16:50;100475.03;;;14.11;100.00
32237;BME280;18726;44.732;10.550;2023-05-15T00:19:53;100473.75;;;14.01;100.00
32237;BME280;18726;44.732;10.550;2023-05-15T00:22:59;100468.63;;;13.96;100.00
32237;BME280;18726;44.732;10.550;2023-05-15T00:26:03;100471.63;;;13.84;100.00
32237;BME280;18726;44.732;10.550;2023-05-15T00:29:07;100471.94;;;13.79;100.00
32237;BME280;18726;44.732;10.550;2023-05-15T00:32:10;100468.38;;;13.75;100.00
32237;BME280;18726;44.732;10.550;2023-05-15T00:35:14;100467.88;;;13.99;100.00
32237;BME280;18726;44.732;10.550;2023-05-15T00:38:18;100459.41;;;14.11;100.00
32237;BME280;18726;44.732;10.550;2023-05-15T00:41:22;100455.53;;;14.16;100.00
32237;BME280;18726;44.732;10.550;2023-05-15T00:44:27;100461.41;;;14.18;100.00
32237;BME280;18726;44.732;10.550;2023-05-15T00:47:32;100461.78;;;14.16;100.00
32237;BME280;18726;44.732;10.550;2023-05-15T00:50:38;100458.34;;;14.23;100.00
32237;BME280;18726;44.732;10.550;2023-05-15T00:53:43;100459.13;;;14.24;100.00
32237;BME280;18726;44.732;10.550;2023-05-15T00:56:48;100451.28;;;14.18;100.00
32237;BME280;18726;44.732;10.550;2023-05-15T00:59:54;100440.63;;;14.06;100.00
32237;BME280;18726;44.732;10.550;2023-05-15T01:02:58;100438.13;;;13.91;100.00
32237;BME280;18726;44.732;10.550;2023-05-15T01:06:04;100436.19;;;13.58;100.00
32237;BME280;18726;44.732;10.550;2023-05-15T01:09:09;100422.81;;;13.45;100.00
32237;BME280;18726;44.732;10.550;2023-05-15T01:12:14;100425.88;;;13.40;100.00
32237;BME280;18726;44.732;10.550;2023-05-15T01:15:19;100442.66;;;13.42;100.00
32237;BME280;18726;44.732;10.550;2023-05-15T01:18:22;100444.88;;;13.67;100.00
32237;BME280;18726;44.732;10.550;2023-05-15T01:27:49;100431.66;;;13.09;100.00
32237;BME280;18726;44.732;10.550;2023-05-15T01:30:54;100429.84;;;12.90;100.00
32237;BME280;18726;44.732;10.550;2023-05-15T01:34:01;100419.63;;;12.83;100.00
32237;BME280;18726;44.732;10.550;2023-05-15T01:37:07;100418.16;;;12.90;100.00
32237;BME280;18726;44.732;10.550;2023-05-15T01:40:14;100421.81;;;13.01;100.00
32237;BME280;18726;44.732;10.550;2023-05-15T01:43:23;100435.44;;;13.01;100.00
32237;BME280;18726;44.732;10.550;2023-05-15T01:46:31;100425.44;;;13.08;100.00
32237;BME280;18726;44.732;10.550;2023-05-15T01:49:37;100419.75;;;13.50;100.00
32237;BME280;18726;44.732;10.550;2023-05-15T01:52:49;100420.13;;;13.86;100.00
32237;BME280;18726;44.732;10.550;2023-05-15T01:55:53;100414.06;;;14.03;100.00
32237;BME280;18726;44.732;10.550;2023-05-15T01:58:59;100420.47;;;14.22;100.00
32237;BME280;18726;44.732;10.550;2023-05-15T02:02:03;100421.16;;;14.08;100.00
32237;BME280;18726;44.732;10.550;2023-05-15T02:05:08;100427.94;;;13.88;100.00
32237;BME280;18726;44.732;10.550;2023-05-15T02:08:12;100439.06;;;13.68;100.00
32237;BME280;18726;44.732;10.550;2023-05-15T02:11:16;100428.41;;;13.56;100.00
32237;BME280;18726;44.732;10.550;2023-05-15T02:14:23;100422.88;;;13.49;100.00
32237;BME280;18726;44.732;10.550;2023-05-15T02:17:28;100422.41;;;13.43;100.00
32237;BME280;18726;44.732;10.550;2023-05-15T02:20:32;100411.81;;;13.38;100.00
32237;BME280;18726;44.732;10.550;2023-05-15T02:23:36;100414.88;;;13.33;100.00
32237;BME280;18726;44.732;10.550;2023-05-15T02:26:59;100400.44;;;13.66;100.00
32237;BME280;18726;44.732;10.550;2023-05-15T02:30:15;100400.25;;;13.85;100.00
32237;BME280;18726;44.732;10.550;2023-05-15T02:36:31;100400.00;;;14.01;100.00
32237;BME280;18726;44.732;10.550;2023-05-15T02:39:36;100402.09;;;13.74;100.00
32237;BME280;18726;44.732;10.550;2023-05-15T02:42:44;100389.00;;;13.54;100.00
32237;BME280;18726;44.732;10.550;2023-05-15T02:45:50;100391.91;;;13.71;100.00
32237;BME280;18726;44.732;10.550;2023-05-15T02:48:54;100388.66;;;13.59;100.00
32237;BME280;18726;44.732;10.550;2023-05-15T02:51:58;100390.88;;;13.46;100.00
32237;BME280;18726;44.732;10.550;2023-05-15T02:55:02;100402.28;;;13.59;100.00
32237;BME280;18726;44.732;10.550;2023-05-15T02:58:06;100400.63;;;13.47;100.00
32237;BME280;18726;44.732;10.550;2023-05-15T03:01:10;100404.63;;;13.23;100.00
32237;BME280;18726;44.732;10.550;2023-05-15T03:04:13;100402.06;;;12.81;100.00
32237;BME280;18726;44.732;10.550;2023-05-15T03:07:18;100396.56;;;12.51;100.00
32237;BME280;18726;44.732;10.550;2023-05-15T03:10:21;100388.94;;;12.60;100.00
32237;BME280;18726;44.732;10.550;2023-05-15T03:13:26;100390.66;;;12.23;100.00
32237;BME280;18726;44.732;10.550;2023-05-15T03:16:30;100381.13;;;12.09;100.00
32237;BME280;18726;44.732;10.550;2023-05-15T03:19:34;100374.16;;;11.89;100.00
32237;BME280;18726;44.732;10.550;2023-05-15T03:22:37;100384.34;;;11.73;100.00
32237;BME280;18726;44.732;10.550;2023-05-15T03:25:41;100381.38;;;11.78;100.00
32237;BME280;18726;44.732;10.550;2023-05-15T03:28:44;100377.91;;;11.81;100.00
32237;BME280;18726;44.732;10.550;2023-05-15T03:31:48;100383.91;;;11.71;100.00
32237;BME280;18726;44.732;10.550;2023-05-15T03:34:52;100385.78;;;11.67;100.00
32237;BME280;18726;44.732;10.550;2023-05-15T03:37:55;100395.09;;;11.66;100.00
32237;BME280;18726;44.732;10.550;2023-05-15T03:40:59;100395.97;;;12.12;100.00
32237;BME280;18726;44.732;10.550;2023-05-15T03:44:02;100392.28;;;12.50;100.00
32237;BME280;18726;44.732;10.550;2023-05-15T03:47:06;100388.38;;;12.77;100.00
32237;BME280;18726;44.732;10.550;2023-05-15T03:50:10;100389.47;;;12.69;100.00
32237;BME280;18726;44.732;10.550;2023-05-15T03:53:13;100396.25;;;12.30;100.00
32237;BME280;18726;44.732;10.550;2023-05-15T03:56:17;100393.81;;;12.25;100.00
32237;BME280;18726;44.732;10.550;2023-05-15T03:59:21;100396.75;;;12.12;100.00
32237;BME280;18726;44.732;10.550;2023-05-15T04:02:24;100398.91;;;12.03;100.00
32237;BME280;18726;44.732;10.550;2023-05-15T04:05:27;100391.84;;;11.99;100.00
32237;BME280;18726;44.732;10.550;2023-05-15T04:08:31;100401.00;;;12.13;100.00
32237;BME280;18726;44.732;10.550;2023-05-15T04:11:35;100399.59;;;12.46;100.00
32237;BME280;18726;44.732;10.550;2023-05-15T04:14:39;100398.56;;;12.80;100.00
32237;BME280;18726;44.732;10.550;2023-05-15T04:17:43;100391.41;;;13.25;100.00
32237;BME280;18726;44.732;10.550;2023-05-15T04:20:47;100392.75;;;13.12;100.00
32237;BME280;18726;44.732;10.550;2023-05-15T04:23:51;100380.84;;;12.94;100.00
32237;BME280;18726;44.732;10.550;2023-05-15T04:26:55;100383.41;;;13.13;100.00
32237;BME280;18726;44.732;10.550;2023-05-15T04:29:59;100383.84;;;13.45;100.00
32237;BME280;18726;44.732;10.550;2023-05-15T04:33:04;100389.16;;;13.34;100.00
32237;BME280;18726;44.732;10.550;2023-05-15T04:36:08;100397.19;;;14.35;100.00
32237;BME280;18726;44.732;10.550;2023-05-15T04:39:12;100401.09;;;15.86;100.00
32237;BME280;18726;44.732;10.550;2023-05-15T04:42:16;100407.25;;;17.18;100.00
32237;BME280;18726;44.732;10.550;2023-05-15T04:45:20;100407.06;;;18.75;100.00
32237;BME280;18726;44.732;10.550;2023-05-15T04:48:23;100422.41;;;20.01;100.00
32237;BME280;18726;44.732;10.550;2023-05-15T04:51:27;100429.84;;;20.54;99.38
32237;BME280;18726;44.732;10.550;2023-05-15T04:54:32;100431.00;;;19.80;100.00
32237;BME280;18726;44.732;10.550;2023-05-15T04:57:35;100441.81;;;19.33;100.00
32237;BME280;18726;44.732;10.550;2023-05-15T05:00:39;100443.72;;;19.36;100.00
32237;BME280;18726;44.732;10.550;2023-05-15T05:03:42;100433.13;;;20.49;100.00
32237;BME280;18726;44.732;10.550;2023-05-15T05:06:46;100442.19;;;21.92;96.02
32237;BME280;18726;44.732;10.550;2023-05-15T05:09:50;100445.59;;;23.51;86.82
32237;BME280;18726;44.732;10.550;2023-05-15T05:12:54;100453.69;;;25.20;76.75
32237;BME280;18726;44.732;10.550;2023-05-15T05:15:58;100450.44;;;25.96;71.32
32237;BME280;18726;44.732;10.550;2023-05-15T05:19:01;100454.75;;;25.44;72.83
32237;BME280;18726;44.732;10.550;2023-05-15T05:22:05;100446.09;;;25.42;71.30
32237;BME280;18726;44.732;10.550;2023-05-15T05:25:10;100459.56;;;25.66;69.69
32237;BME280;18726;44.732;10.550;2023-05-15T05:28:13;100453.19;;;26.27;64.52
32237;BME280;18726;44.732;10.550;2023-05-15T05:31:17;100455.13;;;28.66;58.91
32237;BME280;18726;44.732;10.550;2023-05-15T05:34:21;100457.00;;;29.08;56.06
32237;BME280;18726;44.732;10.550;2023-05-15T05:37:24;100449.13;;;28.82;55.02
32237;BME280;18726;44.732;10.550;2023-05-15T05:40:28;100445.91;;;27.85;57.39
32237;BME280;18726;44.732;10.550;2023-05-15T05:43:32;100455.72;;;28.13;58.70
32237;BME280;18726;44.732;10.550;2023-05-15T05:46:36;100446.09;;;29.10;56.15
32237;BME280;18726;44.732;10.550;2023-05-15T05:49:39;100449.19;;;29.12;52.69
32237;BME280;18726;44.732;10.550;2023-05-15T05:52:43;100449.56;;;28.33;55.82
32237;BME280;18726;44.732;10.550;2023-05-15T05:59:15;100439.38;;;27.88;59.93
32237;BME280;18726;44.732;10.550;2023-05-15T06:02:19;100437.53;;;27.85;61.26
32237;BME280;18726;44.732;10.550;2023-05-15T06:05:24;100435.13;;;28.35;60.40
32237;BME280;18726;44.732;10.550;2023-05-15T06:08:28;100441.22;;;28.57;55.23
32237;BME280;18726;44.732;10.550;2023-05-15T06:11:32;100438.59;;;29.31;54.43
32237;BME280;18726;44.732;10.550;2023-05-15T06:14:35;100434.69;;;30.37;52.44
32237;BME280;18726;44.732;10.550;2023-05-15T06:17:39;100433.44;;;32.13;46.13
32237;BME280;18726;44.732;10.550;2023-05-15T06:20:42;100435.16;;;34.25;41.11
32237;BME280;18726;44.732;10.550;2023-05-15T06:23:46;100433.69;;;33.84;41.29
32237;BME280;18726;44.732;10.550;2023-05-15T06:26:49;100439.06;;;33.54;40.32
32237;BME280;18726;44.732;10.550;2023-05-15T06:29:54;100436.69;;;33.14;42.72
32237;BME280;18726;44.732;10.550;2023-05-15T06:32:58;100435.34;;;32.93;42.09
32237;BME280;18726;44.732;10.550;2023-05-15T06:36:01;100431.25;;;34.44;41.10
32237;BME280;18726;44.732;10.550;2023-05-15T06:39:04;100430.81;;;36.85;36.92
32237;BME280;18726;44.732;10.550;2023-05-15T06:42:08;100434.19;;;38.51;34.38
32237;BME280;18726;44.732;10.550;2023-05-15T06:45:12;100439.22;;;39.06;31.54
32237;BME280;18726;44.732;10.550;2023-05-15T06:48:16;100442.16;;;38.66;30.46
32237;BME280;18726;44.732;10.550;2023-05-15T06:51:19;100447.56;;;39.87;31.61
32237;BME280;18726;44.732;10.550;2023-05-15T06:54:24;100446.06;;;40.79;30.55
32237;BME280;18726;44.732;10.550;2023-05-15T06:57:27;100441.03;;;41.15;28.61
32237;BME280;18726;44.732;10.550;2023-05-15T07:00:31;100444.78;;;40.88;30.18
32237;BME280;18726;44.732;10.550;2023-05-15T07:03:34;100444.56;;;41.83;28.25
32237;BME280;18726;44.732;10.550;2023-05-15T07:06:37;100434.28;;;36.54;30.09
32237;BME280;18726;44.732;10.550;2023-05-15T07:09:41;100436.50;;;38.40;31.90
32237;BME280;18726;44.732;10.550;2023-05-15T07:12:45;100435.06;;;40.39;29.37
32237;BME280;18726;44.732;10.550;2023-05-15T07:15:49;100434.25;;;41.49;27.95
32237;BME280;18726;44.732;10.550;2023-05-15T07:18:53;100436.53;;;41.28;27.78
32237;BME280;18726;44.732;10.550;2023-05-15T07:21:57;100437.47;;;40.71;28.87
32237;BME280;18726;44.732;10.550;2023-05-15T07:25:00;100431.22;;;41.85;29.00
32237;BME280;18726;44.732;10.550;2023-05-15T07:28:06;100422.31;;;42.99;27.70
32237;BME280;18726;44.732;10.550;2023-05-15T07:31:10;100418.19;;;44.09;27.20
32237;BME280;18726;44.732;10.550;2023-05-15T07:34:15;100421.53;;;43.56;27.23
32237;BME280;18726;44.732;10.550;2023-05-15T07:37:18;100416.44;;;42.90;27.26
32237;BME280;18726;44.732;10.550;2023-05-15T07:40:22;100417.66;;;43.36;28.14
32237;BME280;18726;44.732;10.550;2023-05-15T07:43:26;100410.75;;;40.82;28.18
32237;BME280;18726;44.732;10.550;2023-05-15T07:46:32;100411.44;;;41.57;29.69
32237;BME280;18726;44.732;10.550;2023-05-15T07:49:36;100410.31;;;39.98;29.00
32237;BME280;18726;44.732;10.550;2023-05-15T07:52:39;100398.66;;;36.83;33.55
32237;BME280;18726;44.732;10.550;2023-05-15T07:55:44;100386.97;;;34.34;35.41
32237;BME280;18726;44.732;10.550;2023-05-15T07:58:48;100392.25;;;35.66;38.37
32237;BME280;18726;44.732;10.550;2023-05-15T08:01:51;100376.78;;;35.48;34.31
32237;BME280;18726;44.732;10.550;2023-05-15T08:04:55;100362.22;;;36.55;34.83
32237;BME280;18726;44.732;10.550;2023-05-15T08:07:59;100353.75;;;36.12;34.85
32237;BME280;18726;44.732;10.550;2023-05-15T08:11:02;100359.38;;;33.87;35.69
32237;BME280;18726;44.732;10.550;2023-05-15T08:14:06;100361.50;;;34.45;39.34
32237;BME280;18726;44.732;10.550;2023-05-15T08:17:10;100361.13;;;35.12;37.76
32237;BME280;18726;44.732;10.550;2023-05-15T08:20:14;100362.75;;;35.62;36.19
32237;BME280;18726;44.732;10.550;2023-05-15T08:23:19;100367.16;;;35.27;36.90
32237;BME280;18726;44.732;10.550;2023-05-15T08:26:22;100369.34;;;32.82;35.68
32237;BME280;18726;44.732;10.550;2023-05-15T08:29:26;100366.59;;;31.86;40.40
32237;BME280;18726;44.732;10.550;2023-05-15T08:32:30;100371.00;;;31.04;40.92
32237;BME280;18726;44.732;10.550;2023-05-15T08:35:33;100363.97;;;32.19;43.69
32237;BME280;18726;44.732;10.550;2023-05-15T08:38:37;100369.41;;;33.61;43.02
32237;BME280;18726;44.732;10.550;2023-05-15T08:41:57;100367.41;;;34.47;40.96
32237;BME280;18726;44.732;10.550;2023-05-15T08:45:01;100369.66;;;33.63;41.17
32237;BME280;18726;44.732;10.550;2023-05-15T08:48:10;100366.16;;;34.37;41.29
32237;BME280;18726;44.732;10.550;2023-05-15T08:51:16;100387.66;;;34.98;38.79
32237;BME280;18726;44.732;10.550;2023-05-15T08:54:21;100377.06;;;33.66;38.98
32237;BME280;18726;44.732;10.550;2023-05-15T08:57:25;100379.22;;;32.67;40.15
32237;BME280;18726;44.732;10.550;2023-05-15T09:00:30;100376.84;;;32.32;38.29
32237;BME280;18726;44.732;10.550;2023-05-15T09:03:34;100367.31;;;31.81;39.21
32237;BME280;18726;44.732;10.550;2023-05-15T09:06:39;100361.97;;;32.26;47.89
32237;BME280;18726;44.732;10.550;2023-05-15T09:09:44;100353.53;;;32.26;46.08
32237;BME280;18726;44.732;10.550;2023-05-15T09:12:50;100357.38;;;33.38;46.11
32237;BME280;18726;44.732;10.550;2023-05-15T09:15:54;100365.56;;;33.58;42.97
32237;BME280;18726;44.732;10.550;2023-05-15T09:18:59;100360.84;;;32.12;37.82
32237;BME280;18726;44.732;10.550;2023-05-15T09:22:17;100356.75;;;31.33;42.87
32237;BME280;18726;44.732;10.550;2023-05-15T09:25:32;100355.88;;;31.90;49.19
32237;BME280;18726;44.732;10.550;2023-05-15T09:28:36;100359.56;;;30.61;41.98
32237;BME280;18726;44.732;10.550;2023-05-15T09:31:40;100360.47;;;30.99;44.77
32237;BME280;18726;44.732;10.550;2023-05-15T09:34:44;100365.81;;;30.10;50.74
32237;BME280;18726;44.732;10.550;2023-05-15T09:37:56;100363.72;;;31.43;51.16
32237;BME280;18726;44.732;10.550;2023-05-15T09:41:04;100362.81;;;32.48;45.30
32237;BME280;18726;44.732;10.550;2023-05-15T09:44:17;100364.94;;;31.11;42.89
32237;BME280;18726;44.732;10.550;2023-05-15T09:47:22;100356.22;;;29.81;42.19
32237;BME280;18726;44.732;10.550;2023-05-15T09:50:37;100359.19;;;29.13;48.69
32237;BME280;18726;44.732;10.550;2023-05-15T09:53:41;100364.88;;;28.66;52.23
32237;BME280;18726;44.732;10.550;2023-05-15T09:56:46;100350.56;;;27.35;47.61
32237;BME280;18726;44.732;10.550;2023-05-15T09:59:50;100344.41;;;26.95;52.71
32237;BME280;18726;44.732;10.550;2023-05-15T10:02:57;100346.13;;;27.95;49.30
32237;BME280;18726;44.732;10.550;2023-05-15T10:06:01;100336.03;;;29.42;54.60
32237;BME280;18726;44.732;10.550;2023-05-15T10:09:08;100339.41;;;30.57;48.88
32237;BME280;18726;44.732;10.550;2023-05-15T10:12:12;100321.72;;;27.38;46.64
32237;BME280;18726;44.732;10.550;2023-05-15T10:15:17;100313.22;;;27.99;61.04
32237;BME280;18726;44.732;10.550;2023-05-15T10:18:22;100312.09;;;29.41;57.45
32237;BME280;18726;44.732;10.550;2023-05-15T10:21:31;100307.13;;;27.76;49.52
32237;BME280;18726;44.732;10.550;2023-05-15T10:24:36;100319.41;;;28.27;58.08
32237;BME280;18726;44.732;10.550;2023-05-15T10:27:41;100321.44;;;29.88;52.71
32237;BME280;18726;44.732;10.550;2023-05-15T10:30:46;100330.72;;;29.79;40.87
32237;BME280;18726;44.732;10.550;2023-05-15T10:33:51;100321.16;;;30.67;48.78
32237;BME280;18726;44.732;10.550;2023-05-15T10:36:58;100324.84;;;31.05;42.18
32237;BME280;18726;44.732;10.550;2023-05-15T10:40:03;100312.19;;;31.15;46.17
32237;BME280;18726;44.732;10.550;2023-05-15T10:43:10;100304.66;;;32.17;48.57
32237;BME280;18726;44.732;10.550;2023-05-15T10:46:15;100287.44;;;32.58;45.63
32237;BME280;18726;44.732;10.550;2023-05-15T10:49:18;100294.50;;;32.26;43.16
32237;BME280;18726;44.732;10.550;2023-05-15T10:52:23;100291.34;;;32.88;46.09
32237;BME280;18726;44.732;10.550;2023-05-15T10:55:29;100290.47;;;32.49;38.87
32237;BME280;18726;44.732;10.550;2023-05-15T10:58:33;100285.16;;;29.79;44.93
32237;BME280;18726;44.732;10.550;2023-05-15T11:01:38;100270.66;;;28.81;46.86
32237;BME280;18726;44.732;10.550;2023-05-15T11:04:43;100270.63;;;27.89;51.42
32237;BME280;18726;44.732;10.550;2023-05-15T11:18:03;100269.06;;;27.88;59.07
32237;BME280;18726;44.732;10.550;2023-05-15T11:21:08;100273.03;;;28.73;52.43
32237;BME280;18726;44.732;10.550;2023-05-15T11:24:12;100293.88;;;28.34;46.43
32237;BME280;18726;44.732;10.550;2023-05-15T11:27:41;100300.16;;;27.39;48.93
32237;BME280;18726;44.732;10.550;2023-05-15T11:30:49;100300.75;;;28.47;52.54
32237;BME280;18726;44.732;10.550;2023-05-15T11:33:53;100296.44;;;28.61;50.86
32237;BME280;18726;44.732;10.550;2023-05-15T11:36:58;100296.56;;;28.04;49.89
32237;BME280;18726;44.732;10.550;2023-05-15T11:40:05;100297.66;;;27.08;56.90
32237;BME280;18726;44.732;10.550;2023-05-15T11:43:19;100295.22;;;26.37;56.15
32237;BME280;18726;44.732;10.550;2023-05-15T11:46:23;100271.81;;;26.80;54.79
32237;BME280;18726;44.732;10.550;2023-05-15T11:49:27;100263.19;;;27.20;61.75
32237;BME280;18726;44.732;10.550;2023-05-15T11:52:32;100266.66;;;28.19;57.40
32237;BME280;18726;44.732;10.550;2023-05-15T11:55:37;100275.56;;;28.86;56.00
32237;BME280;18726;44.732;10.550;2023-05-15T11:58:42;100266.09;;;28.54;53.12
32237;BME280;18726;44.732;10.550;2023-05-15T12:01:46;100270.84;;;28.00;55.37
32237;BME280;18726;44.732;10.550;2023-05-15T12:04:49;100274.63;;;25.98;60.98
32237;BME280;18726;44.732;10.550;2023-05-15T12:07:53;100272.63;;;26.62;53.70
32237;BME280;18726;44.732;10.550;2023-05-15T12:10:58;100271.06;;;26.70;54.28
32237;BME280;18726;44.732;10.550;2023-05-15T12:14:03;100257.38;;;27.09;61.61
32237;BME280;18726;44.732;10.550;2023-05-15T12:17:06;100258.94;;;28.14;62.38
32237;BME280;18726;44.732;10.550;2023-05-15T12:20:17;100255.50;;;25.60;56.89
32237;BME280;18726;44.732;10.550;2023-05-15T12:23:23;100251.69;;;25.26;62.38
32237;BME280;18726;44.732;10.550;2023-05-15T12:26:28;100242.47;;;25.38;65.19
32237;BME280;18726;44.732;10.550;2023-05-15T12:29:32;100262.34;;;25.68;57.19
32237;BME280;18726;44.732;10.550;2023-05-15T12:32:36;100262.66;;;25.30;61.71
32237;BME280;18726;44.732;10.550;2023-05-15T12:35:43;100261.44;;;25.31;59.83
32237;BME280;18726;44.732;10.550;2023-05-15T12:38:47;100257.47;;;26.27;68.39
32237;BME280;18726;44.732;10.550;2023-05-15T12:41:51;100262.84;;;25.44;64.14
32237;BME280;18726;44.732;10.550;2023-05-15T12:44:58;100262.97;;;25.72;61.89
32237;BME280;18726;44.732;10.550;2023-05-15T12:48:02;100259.31;;;25.13;68.22
32237;BME280;18726;44.732;10.550;2023-05-15T12:51:07;100254.13;;;24.93;68.81
32237;BME280;18726;44.732;10.550;2023-05-15T12:54:18;100240.16;;;25.06;64.60
32237;BME280;18726;44.732;10.550;2023-05-15T12:57:21;100240.69;;;25.72;62.14
32237;BME280;18726;44.732;10.550;2023-05-15T13:00:27;100241.19;;;25.30;64.40
32237;BME280;18726;44.732;10.550;2023-05-15T13:03:31;100230.06;;;25.79;64.64
32237;BME280;18726;44.732;10.550;2023-05-15T13:06:37;100231.84;;;25.15;68.06
32237;BME280;18726;44.732;10.550;2023-05-15T13:09:42;100223.16;;;24.29;68.03
32237;BME280;18726;44.732;10.550;2023-05-15T13:12:47;100222.22;;;24.10;71.15
32237;BME280;18726;44.732;10.550;2023-05-15T13:15:52;100228.28;;;24.52;66.99
32237;BME280;18726;44.732;10.550;2023-05-15T13:18:57;100220.25;;;24.85;70.08
32237;BME280;18726;44.732;10.550;2023-05-15T13:22:01;100220.50;;;25.99;64.83
32237;BME280;18726;44.732;10.550;2023-05-15T13:25:05;100219.97;;;25.73;60.37
32237;BME280;18726;44.732;10.550;2023-05-15T13:28:10;100223.84;;;25.75;57.07
32237;BME280;18726;44.732;10.550;2023-05-15T13:31:17;100212.59;;;26.52;59.04
32237;BME280;18726;44.732;10.550;2023-05-15T13:34:21;100210.44;;;24.94;65.36
32237;BME280;18726;44.732;10.550;2023-05-15T13:37:25;100209.81;;;25.30;61.21
32237;BME280;18726;44.732;10.550;2023-05-15T13:40:30;100206.88;;;25.24;63.82
32237;BME280;18726;44.732;10.550;2023-05-15T13:43:35;100198.63;;;24.28;71.38
32237;BME280;18726;44.732;10.550;2023-05-15T13:46:39;100194.22;;;24.61;66.68
32237;BME280;18726;44.732;10.550;2023-05-15T13:49:44;100191.53;;;24.79;64.74
32237;BME280;18726;44.732;10.550;2023-05-15T13:52:48;100198.47;;;24.09;65.88
32237;BME280;18726;44.732;10.550;2023-05-15T13:55:52;100194.81;;;23.78;67.41
32237;BME280;18726;44.732;10.550;2023-05-15T13:58:56;100203.91;;;24.35;68.10
32237;BME280;18726;44.732;10.550;2023-05-15T14:02:00;100187.09;;;24.60;61.63
32237;BME280;18726;44.732;10.550;2023-05-15T14:05:04;100191.44;;;24.92;61.12
32237;BME280;18726;44.732;10.550;2023-05-15T14:08:09;100189.03;;;25.62;63.97
32237;BME280;18726;44.732;10.550;2023-05-15T14:11:13;100186.06;;;25.38;64.92
32237;BME280;18726;44.732;10.550;2023-05-15T14:14:18;100190.63;;;24.30;66.16
32237;BME280;18726;44.732;10.550;2023-05-15T14:17:21;100181.44;;;24.42;62.83
32237;BME280;18726;44.732;10.550;2023-05-15T14:20:26;100187.13;;;24.16;72.45
32237;BME280;18726;44.732;10.550;2023-05-15T14:23:29;100168.47;;;23.61;73.40
32237;BME280;18726;44.732;10.550;2023-05-15T14:26:33;100168.97;;;23.68;77.23
32237;BME280;18726;44.732;10.550;2023-05-15T14:29:38;100176.28;;;23.75;73.96
32237;BME280;18726;44.732;10.550;2023-05-15T14:32:41;100171.03;;;24.11;75.76
32237;BME280;18726;44.732;10.550;2023-05-15T14:35:48;100178.91;;;24.87;71.43
32237;BME280;18726;44.732;10.550;2023-05-15T14:38:53;100174.59;;;24.12;66.97
32237;BME280;18726;44.732;10.550;2023-05-15T14:41:57;100180.13;;;24.25;67.34
32237;BME280;18726;44.732;10.550;2023-05-15T14:45:01;100175.94;;;24.07;76.42
32237;BME280;18726;44.732;10.550;2023-05-15T14:48:05;100176.84;;;23.70;71.58
32237;BME280;18726;44.732;10.550;2023-05-15T14:51:09;100179.56;;;23.61;72.19
32237;BME280;18726;44.732;10.550;2023-05-15T14:54:13;100179.84;;;24.53;71.63
32237;BME280;18726;44.732;10.550;2023-05-15T14:57:16;100174.13;;;23.57;72.97
32237;BME280;18726;44.732;10.550;2023-05-15T15:00:22;100182.72;;;23.72;72.08
32237;BME280;18726;44.732;10.550;2023-05-15T15:03:26;100186.69;;;23.36;71.60
32237;BME280;18726;44.732;10.550;2023-05-15T15:06:30;100187.56;;;23.33;69.36
32237;BME280;18726;44.732;10.550;2023-05-15T15:09:34;100183.31;;;23.41;77.20
32237;BME280;18726;44.732;10.550;2023-05-15T15:12:38;100179.66;;;23.44;76.50
32237;BME280;18726;44.732;10.550;2023-05-15T15:15:41;100184.63;;;23.49;69.63
32237;BME280;18726;44.732;10.550;2023-05-15T15:18:45;100197.50;;;23.43;68.82
32237;BME280;18726;44.732;10.550;2023-05-15T15:21:49;100195.19;;;23.42;73.60
32237;BME280;18726;44.732;10.550;2023-05-15T15:24:53;100196.09;;;23.26;72.44
32237;BME280;18726;44.732;10.550;2023-05-15T15:27:56;100192.09;;;23.27;74.93
32237;BME280;18726;44.732;10.550;2023-05-15T15:31:00;100195.53;;;23.18;74.43
32237;BME280;18726;44.732;10.550;2023-05-15T15:38:21;100203.75;;;23.22;70.44
32237;BME280;18726;44.732;10.550;2023-05-15T15:41:25;100201.53;;;23.30;67.98
32237;BME280;18726;44.732;10.550;2023-05-15T15:44:32;100196.41;;;23.53;70.25
32237;BME280;18726;44.732;10.550;2023-05-15T15:47:37;100202.25;;;23.68;70.90
32237;BME280;18726;44.732;10.550;2023-05-15T15:50:45;100202.66;;;23.07;68.61
32237;BME280;18726;44.732;10.550;2023-05-15T15:53:48;100193.66;;;23.15;69.98
32237;BME280;18726;44.732;10.550;2023-05-15T15:56:52;100199.09;;;23.32;68.19
32237;BME280;18726;44.732;10.550;2023-05-15T15:59:56;100201.41;;;23.59;72.88
32237;BME280;18726;44.732;10.550;2023-05-15T16:03:00;100190.41;;;23.42;74.25
32237;BME280;18726;44.732;10.550;2023-05-15T16:06:04;100186.91;;;23.04;75.63
32237;BME280;18726;44.732;10.550;2023-05-15T16:09:07;100186.19;;;22.49;81.83
32237;BME280;18726;44.732;10.550;2023-05-15T16:12:10;100186.81;;;22.53;85.58
32237;BME280;18726;44.732;10.550;2023-05-15T16:15:15;100180.88;;;22.13;85.22
32237;BME280;18726;44.732;10.550;2023-05-15T16:18:20;100191.56;;;22.40;81.83